Time;durP1;ratioP1;P1;durP2;ratioP2;P2;SDS_P1;SDS_P2;PMS_P1;PMS_P2;Temp;Humidity;BMP_temperature;BMP_pressure;BME280_temperature;BME280_humidity;BME280_pressure;Samples;Min_cycle;Max_cycle;Signal;HPM_P1;HPM_P2
2022/09/28 00:01:04;;;;;;;7.45;5.40;;;9.50;99.90;;;;;;5063664;28;20025;-77
2022/09/28 00:03:30;;;;;;;7.47;4.43;;;9.50;99.90;;;;;;5067208;28;20028;-77
2022/09/28 00:06:03;;;;;;;7.82;4.63;;;9.50;99.90;;;;;;5064518;28;20027;-77
2022/09/28 00:08:29;;;;;;;7.40;5.10;;;9.50;99.90;;;;;;5059097;28;20551;-77
2022/09/28 00:10:56;;;;;;;7.55;5.00;;;9.50;99.90;;;;;;5062827;28;20553;-77
2022/09/28 00:13:23;;;;;;;8.55;5.00;;;9.50;99.90;;;;;;5061053;28;20040;-77
2022/09/28 00:16:03;;;;;;;9.80;5.57;;;9.50;99.90;;;;;;5054986;28;20108;-77
2022/09/28 00:18:29;;;;;;;6.27;4.83;;;9.40;99.90;;;;;;5066765;28;20784;-76
2022/09/28 00:21:05;;;;;;;7.72;4.93;;;9.40;99.90;;;;;;5060495;28;20382;-77
2022/09/28 00:23:32;;;;;;;7.68;5.68;;;9.40;99.90;;;;;;5066263;28;20017;-77
2022/09/28 00:26:04;;;;;;;7.80;5.07;;;9.40;99.90;;;;;;5058173;28;20031;-77
2022/09/28 00:28:30;;;;;;;9.10;5.10;;;9.40;99.90;;;;;;5067662;28;20025;-77
2022/09/28 00:30:56;;;;;;;8.88;5.70;;;9.40;99.90;;;;;;5062352;28;20033;-77
2022/09/28 00:33:23;;;;;;;8.57;4.90;;;9.40;99.90;;;;;;5067481;28;20107;-77
2022/09/28 00:35:58;;;;;;;6.30;4.72;;;9.30;99.90;;;;;;5066429;28;20028;-77
2022/09/28 00:38:28;;;;;;;7.95;5.15;;;9.30;99.90;;;;;;5064358;28;20032;-77
2022/09/28 00:40:54;;;;;;;6.10;4.53;;;9.30;99.90;;;;;;5067229;28;20108;-77
2022/09/28 00:43:21;;;;;;;8.77;5.53;;;9.30;99.90;;;;;;5059388;28;20029;-77
2022/09/28 00:49:01;;;;;;;6.47;4.53;;;9.20;99.90;;;;;;5058425;28;20519;-77
2022/09/28 00:51:29;;;;;;;9.00;5.50;;;9.20;99.90;;;;;;5063457;28;20365;-77
2022/09/28 00:53:56;;;;;;;7.82;5.10;;;9.20;99.90;;;;;;5066560;28;20214;-77
2022/09/28 00:56:25;;;;;;;7.68;5.13;;;9.20;99.90;;;;;;5062379;28;20048;-76
2022/09/28 00:58:53;;;;;;;7.53;5.38;;;9.10;99.90;;;;;;5064126;28;20032;-77
2022/09/28 01:01:20;;;;;;;7.20;4.85;;;9.10;99.90;;;;;;5058636;28;20563;-76
2022/09/28 01:03:47;;;;;;;7.97;5.10;;;9.10;99.90;;;;;;5059591;28;20025;-76
2022/09/28 01:06:26;;;;;;;7.53;5.22;;;9.10;99.90;;;;;;5061219;28;20025;-79
2022/09/28 01:08:55;;;;;;;7.47;5.32;;;9.10;99.90;;;;;;5062284;28;20099;-76
2022/09/28 01:11:21;;;;;;;8.15;5.25;;;9.10;99.90;;;;;;5060877;28;20114;-77
2022/09/28 01:13:51;;;;;;;5.65;4.82;;;9.00;99.90;;;;;;5063420;28;20725;-78
2022/09/28 01:16:32;;;;;;;8.32;5.65;;;9.00;99.90;;;;;;5055551;28;20047;-76
2022/09/28 01:19:18;;;;;;;7.90;5.95;;;9.00;99.90;;;;;;5058489;28;20111;-76
2022/09/28 01:21:54;;;;;;;10.45;5.90;;;9.00;99.90;;;;;;5058701;28;20103;-77
2022/09/28 01:24:45;;;;;;;8.10;5.15;;;9.00;99.90;;;;;;5064014;28;20027;-76
2022/09/28 01:28:09;;;;;;;7.68;5.53;;;8.90;99.90;;;;;;5066774;28;20460;-76
2022/09/28 01:31:06;;;;;;;9.88;6.22;;;8.90;99.90;;;;;;5005145;28;20043;-77
2022/09/28 01:33:47;;;;;;;6.63;5.18;;;8.90;99.90;;;;;;5000456;28;20596;-76
2022/09/28 01:36:24;;;;;;;10.43;5.80;;;8.80;99.90;;;;;;5002265;28;20046;-76
2022/09/28 01:38:54;;;;;;;9.95;5.82;;;8.80;99.90;;;;;;5003645;28;20034;-77
2022/09/28 01:41:23;;;;;;;9.80;6.30;;;8.80;99.90;;;;;;4989377;28;20041;-76
2022/09/28 01:43:54;;;;;;;8.75;5.68;;;8.80;99.90;;;;;;5005801;28;20030;-77
2022/09/28 01:46:26;;;;;;;8.03;5.63;;;8.80;99.90;;;;;;5007390;28;20054;-76
2022/09/28 01:49:04;;;;;;;10.02;6.20;;;8.80;99.90;;;;;;5010121;28;20545;-77
2022/09/28 01:51:42;;;;;;;9.85;5.80;;;8.70;99.90;;;;;;5017603;28;20037;-77
2022/09/28 01:54:21;;;;;;;8.70;5.88;;;8.70;99.90;;;;;;5010151;28;20068;-75
2022/09/28 01:56:53;;;;;;;11.10;5.43;;;8.70;99.90;;;;;;5004352;28;20081;-76
2022/09/28 01:59:24;;;;;;;7.28;5.47;;;8.70;99.90;;;;;;5006823;28;20113;-79
2022/09/28 02:02:35;;;;;;;8.68;5.95;;;8.70;99.90;;;;;;5044765;28;20528;-76
2022/09/28 02:05:10;;;;;;;10.40;5.40;;;8.60;99.90;;;;;;5026189;28;20125;-76
2022/09/28 02:07:58;;;;;;;9.70;6.10;;;8.60;99.90;;;;;;5055969;28;20103;-76
2022/09/28 02:10:28;;;;;;;8.68;6.25;;;8.60;99.90;;;;;;5060254;28;20122;-77
2022/09/28 02:13:27;;;;;;;8.25;5.72;;;8.60;99.90;;;;;;5069050;28;20816;-76
2022/09/28 02:16:10;;;;;;;10.65;6.15;;;8.60;99.90;;;;;;5065102;28;20055;-77
2022/09/28 02:18:36;;;;;;;13.27;6.32;;;8.60;99.90;;;;;;5068106;28;20024;-75
2022/09/28 02:21:37;;;;;;;8.15;6.18;;;8.60;99.90;;;;;;5067680;28;20029;-76
2022/09/28 02:24:36;;;;;;;8.73;6.07;;;8.60;99.90;;;;;;5055606;28;20032;-76
2022/09/28 02:27:33;;;;;;;7.90;5.95;;;8.60;99.90;;;;;;5054891;28;20036;-76
2022/09/28 02:29:59;;;;;;;9.00;6.25;;;8.60;99.90;;;;;;5062409;28;20032;-77
2022/09/28 02:32:27;;;;;;;6.75;5.75;;;8.60;99.90;;;;;;5066752;28;20067;-76
2022/09/28 02:34:54;;;;;;;8.70;5.93;;;8.70;99.90;;;;;;5067386;28;20032;-77
2022/09/28 02:37:20;;;;;;;9.63;6.25;;;8.70;99.90;;;;;;5067889;28;20036;-77
2022/09/28 02:39:46;;;;;;;10.13;7.05;;;8.70;99.90;;;;;;5068495;28;20037;-77
2022/09/28 02:42:32;;;;;;;9.75;6.88;;;8.70;99.90;;;;;;5064559;28;20017;-77
2022/09/28 02:45:04;;;;;;;11.93;7.03;;;8.80;99.90;;;;;;5056284;28;20446;-77
2022/09/28 02:48:09;;;;;;;11.95;7.57;;;8.80;99.90;;;;;;5062538;28;20032;-76
2022/09/28 02:51:03;;;;;;;12.20;7.20;;;8.80;99.90;;;;;;5063991;28;20082;-76
2022/09/28 02:54:17;;;;;;;14.23;8.85;;;8.80;99.90;;;;;;5068193;28;20528;-79
2022/09/28 02:57:03;;;;;;;11.60;8.45;;;8.70;99.90;;;;;;5031317;28;20053;-78
2022/09/28 03:00:01;;;;;;;10.45;7.90;;;8.70;99.90;;;;;;5068222;28;20062;-77
2022/09/28 03:02:31;;;;;;;12.32;8.23;;;8.70;99.90;;;;;;5056204;28;20063;-76
2022/09/28 03:05:09;;;;;;;12.63;7.95;;;8.60;99.90;;;;;;5064923;28;20032;-77
2022/09/28 03:07:43;;;;;;;12.43;8.75;;;8.60;99.90;;;;;;5064508;28;20037;-76
2022/09/28 03:10:15;;;;;;;14.32;7.95;;;8.60;99.90;;;;;;5067916;28;20028;-76
2022/09/28 03:12:44;;;;;;;14.77;8.40;;;8.60;99.90;;;;;;5063617;28;20120;-77
2022/09/28 03:15:20;;;;;;;12.65;8.27;;;8.60;99.90;;;;;;5064767;28;20535;-77
2022/09/28 03:17:46;;;;;;;11.35;7.88;;;8.60;99.90;;;;;;5063015;28;20218;-77
2022/09/28 03:20:12;;;;;;;15.48;8.68;;;8.60;99.90;;;;;;5060457;28;20103;-77
2022/09/28 03:22:38;;;;;;;11.80;7.72;;;8.60;99.90;;;;;;5062742;28;20480;-77
2022/09/28 03:25:05;;;;;;;12.43;8.10;;;8.60;99.90;;;;;;5066484;28;20029;-77
2022/09/28 03:27:31;;;;;;;12.40;8.10;;;8.60;99.90;;;;;;5065694;28;20059;-77
2022/09/28 03:29:57;;;;;;;11.07;7.53;;;8.50;99.90;;;;;;5067155;28;20610;-77
2022/09/28 03:32:22;;;;;;;12.27;7.60;;;8.60;99.90;;;;;;5064749;28;20404;-77
2022/09/28 03:34:48;;;;;;;14.15;8.63;;;8.50;99.90;;;;;;5062398;28;20532;-76
2022/09/28 03:37:14;;;;;;;11.80;7.97;;;8.50;99.90;;;;;;5063131;28;20035;-77
2022/09/28 03:39:40;;;;;;;10.63;8.43;;;8.50;99.90;;;;;;5059140;28;20030;-77
2022/09/28 03:42:06;;;;;;;13.82;8.23;;;8.50;99.90;;;;;;5063795;28;20027;-77
2022/09/28 03:44:31;;;;;;;11.93;8.02;;;8.50;99.90;;;;;;5067204;28;20020;-77
2022/09/28 03:46:58;;;;;;;13.13;8.40;;;8.50;99.90;;;;;;5062600;28;20029;-77
2022/09/28 03:49:24;;;;;;;14.05;9.30;;;8.50;99.90;;;;;;5072557;28;20029;-78
2022/09/28 03:51:49;;;;;;;13.38;9.20;;;8.50;99.90;;;;;;5064819;28;20117;-80
2022/09/28 03:54:15;;;;;;;14.05;9.32;;;8.40;99.90;;;;;;5069075;28;20035;-78
2022/09/28 03:56:41;;;;;;;14.70;8.57;;;8.40;99.90;;;;;;5075045;28;20029;-78
2022/09/28 03:59:06;;;;;;;17.05;9.05;;;8.40;99.90;;;;;;5070873;28;20033;-79
2022/09/28 04:01:32;;;;;;;14.13;8.57;;;8.40;99.90;;;;;;5069650;28;20020;-77
2022/09/28 04:03:58;;;;;;;14.85;8.40;;;8.40;99.90;;;;;;5068564;28;20028;-79
2022/09/28 04:06:24;;;;;;;14.05;8.50;;;8.40;99.90;;;;;;5072678;28;20017;-79
2022/09/28 04:08:50;;;;;;;14.43;9.18;;;8.40;99.90;;;;;;5062457;28;20032;-77
2022/09/28 04:11:16;;;;;;;11.55;7.80;;;8.40;99.90;;;;;;5065646;28;20154;-79
2022/09/28 04:13:42;;;;;;;13.75;8.43;;;8.40;99.90;;;;;;5078343;28;20043;-77
2022/09/28 04:16:10;;;;;;;13.35;8.25;;;8.40;99.90;;;;;;5078667;28;20073;-77
2022/09/28 04:18:35;;;;;;;16.50;9.27;;;8.40;99.90;;;;;;5075226;28;20048;-76
2022/09/28 04:21:06;;;;;;;11.27;8.50;;;8.40;99.90;;;;;;5067003;28;20025;-77
2022/09/28 04:23:34;;;;;;;16.50;9.65;;;8.40;99.90;;;;;;5065283;28;20028;-77
2022/09/28 04:26:01;;;;;;;11.57;8.75;;;8.40;99.90;;;;;;5059701;28;20020;-77
2022/09/28 04:31:14;;;;;;;13.00;8.95;;;8.30;99.90;;;;;;5064031;28;20035;-77
2022/09/28 04:33:40;;;;;;;14.82;9.65;;;8.30;99.90;;;;;;5062645;28;20039;-77
2022/09/28 04:36:06;;;;;;;14.23;8.98;;;8.40;99.90;;;;;;5061416;28;20033;-77
2022/09/28 04:38:32;;;;;;;14.05;9.25;;;8.40;99.90;;;;;;5061476;28;20082;-77
2022/09/28 04:40:58;;;;;;;13.68;9.73;;;8.40;99.90;;;;;;5060808;28;20020;-77
2022/09/28 04:43:24;;;;;;;15.80;10.43;;;8.40;99.90;;;;;;5057597;28;20039;-78
2022/09/28 04:45:49;;;;;;;17.33;10.98;;;8.40;99.90;;;;;;5060781;28;20055;-78
2022/09/28 04:48:15;;;;;;;15.93;11.32;;;8.40;99.90;;;;;;5066350;28;20028;-78
2022/09/28 04:50:41;;;;;;;14.02;10.10;;;8.40;99.90;;;;;;5064359;28;20464;-78
2022/09/28 04:53:06;;;;;;;18.92;11.32;;;8.40;99.90;;;;;;5059520;28;20157;-77
2022/09/28 04:55:32;;;;;;;14.07;10.25;;;8.40;99.90;;;;;;5061793;28;20138;-77
2022/09/28 04:58:02;;;;;;;17.13;11.57;;;8.40;99.90;;;;;;5063027;28;20021;-77
2022/09/28 05:00:34;;;;;;;17.52;11.25;;;8.40;99.90;;;;;;5068636;28;20024;-77
2022/09/28 05:03:00;;;;;;;16.23;11.18;;;8.30;99.90;;;;;;5062280;28;20020;-79
2022/09/28 05:05:26;;;;;;;19.70;12.75;;;8.30;99.90;;;;;;5061095;28;20036;-78
2022/09/28 05:07:51;;;;;;;16.60;11.30;;;8.30;99.90;;;;;;5067484;28;20028;-77
2022/09/28 05:10:18;;;;;;;16.08;11.32;;;8.30;99.90;;;;;;5060606;28;20075;-77
2022/09/28 05:12:44;;;;;;;18.15;11.98;;;8.30;99.90;;;;;;5059415;28;20051;-77
2022/09/28 05:15:10;;;;;;;17.65;11.75;;;8.30;99.90;;;;;;5060186;28;20380;-78
2022/09/28 05:17:36;;;;;;;17.05;12.18;;;8.40;99.90;;;;;;5063811;28;20277;-76
2022/09/28 05:20:02;;;;;;;19.98;12.75;;;8.40;99.90;;;;;;5073271;28;20097;-77
2022/09/28 05:22:28;;;;;;;20.63;12.40;;;8.40;99.90;;;;;;5064621;28;20606;-77
2022/09/28 05:24:54;;;;;;;21.77;13.00;;;8.40;99.90;;;;;;5068197;28;20020;-78
2022/09/28 05:27:20;;;;;;;20.60;13.07;;;8.50;99.90;;;;;;5068713;28;20044;-77
2022/09/28 05:29:46;;;;;;;29.13;17.98;;;8.50;99.90;;;;;;5069307;28;20461;-77
2022/09/28 05:32:11;;;;;;;26.65;16.95;;;8.40;99.90;;;;;;5072554;28;20028;-77
2022/09/28 05:34:37;;;;;;;32.08;17.88;;;8.40;99.90;;;;;;5068234;28;20530;-77
2022/09/28 05:37:03;;;;;;;28.00;16.60;;;8.40;99.90;;;;;;5065529;28;20209;-75
2022/09/28 05:39:28;;;;;;;27.08;16.58;;;8.50;99.90;;;;;;5058861;28;20033;-77
2022/09/28 05:41:56;;;;;;;28.58;16.10;;;8.50;99.90;;;;;;5060143;28;20024;-77
2022/09/28 05:44:23;;;;;;;32.20;18.63;;;8.50;99.90;;;;;;5062133;28;20037;-76
2022/09/28 05:46:49;;;;;;;33.80;18.17;;;8.50;99.90;;;;;;5063040;28;20028;-77
2022/09/28 05:49:16;;;;;;;30.80;19.10;;;8.50;99.90;;;;;;5065084;28;20044;-77
2022/09/28 05:51:41;;;;;;;33.05;19.23;;;8.50;99.90;;;;;;5065992;28;20024;-77
2022/09/28 05:54:07;;;;;;;30.50;19.80;;;8.50;99.90;;;;;;5067182;28;20105;-77
2022/09/28 05:56:33;;;;;;;30.17;19.27;;;8.50;99.90;;;;;;5065127;28;20024;-75
2022/09/28 05:58:59;;;;;;;33.90;20.30;;;8.60;99.90;;;;;;5064237;28;20029;-76
2022/09/28 06:01:25;;;;;;;29.75;19.50;;;8.50;99.90;;;;;;5068685;28;20021;-76
2022/09/28 06:03:50;;;;;;;33.08;19.73;;;8.50;99.90;;;;;;5067311;28;20089;-77
2022/09/28 06:06:16;;;;;;;34.55;20.38;;;8.60;99.90;;;;;;5065781;28;20284;-76
2022/09/28 06:08:45;;;;;;;35.35;21.08;;;8.60;99.90;;;;;;5068185;28;20392;-76
2022/09/28 06:11:11;;;;;;;37.83;21.33;;;8.60;99.90;;;;;;5069178;28;20116;-77
2022/09/28 06:13:38;;;;;;;32.88;19.27;;;8.60;99.90;;;;;;5069457;28;20028;-77
2022/09/28 06:16:13;;;;;;;34.05;19.98;;;8.70;99.90;;;;;;5063367;28;20030;-77
2022/09/28 06:18:40;;;;;;;36.63;21.13;;;8.70;99.90;;;;;;5067108;28;20025;-77
2022/09/28 06:21:09;;;;;;;35.05;20.65;;;8.70;99.90;;;;;;5057924;28;20112;-76
2022/09/28 06:23:35;;;;;;;36.15;20.95;;;8.70;99.90;;;;;;5066213;28;20031;-76
2022/09/28 06:26:00;;;;;;;36.80;21.85;;;8.70;99.90;;;;;;5065469;28;20497;-78
2022/09/28 06:28:26;;;;;;;37.72;22.10;;;9.10;99.90;;;;;;5064853;28;20422;-77
2022/09/28 06:30:53;;;;;;;20.88;11.15;;;9.00;99.90;;;;;;5066217;28;20135;-77
2022/09/28 06:33:19;;;;;;;33.08;19.38;;;9.90;99.90;;;;;;5068242;28;20104;-77
2022/09/28 06:35:45;;;;;;;32.30;19.33;;;10.00;99.90;;;;;;5068185;28;20020;-77
2022/09/28 06:38:10;;;;;;;32.85;19.90;;;9.60;99.90;;;;;;5071266;28;20051;-77
2022/09/28 06:40:37;;;;;;;33.35;19.83;;;9.40;99.90;;;;;;5065496;28;20427;-77
2022/09/28 06:43:13;;;;;;;31.67;19.90;;;9.20;99.90;;;;;;5065567;28;20027;-77
2022/09/28 06:45:40;;;;;;;35.03;20.05;;;9.10;99.90;;;;;;5083159;28;20135;-75
2022/09/28 06:48:06;;;;;;;30.45;18.95;;;9.00;99.90;;;;;;5075664;28;20100;-76
2022/09/28 06:50:36;;;;;;;34.40;19.73;;;9.00;99.90;;;;;;5070932;28;20072;-77
2022/09/28 06:53:03;;;;;;;31.63;17.92;;;8.90;99.90;;;;;;5065993;28;20604;-77
2022/09/28 06:55:29;;;;;;;28.75;17.70;;;8.90;99.90;;;;;;5070662;28;20442;-77
2022/09/28 06:58:03;;;;;;;30.05;18.55;;;8.90;99.90;;;;;;5068344;28;20029;-78
2022/09/28 07:00:32;;;;;;;31.20;19.15;;;8.90;99.90;;;;;;5066133;28;20027;-78
2022/09/28 07:03:00;;;;;;;35.55;22.10;;;8.90;99.90;;;;;;5072180;28;20404;-77
2022/09/28 07:05:26;;;;;;;33.58;19.75;;;8.90;99.90;;;;;;5071856;28;20024;-77
2022/09/28 07:07:58;;;;;;;35.05;20.23;;;8.80;99.90;;;;;;5073886;28;20032;-77
2022/09/28 07:10:26;;;;;;;31.15;20.02;;;8.70;99.90;;;;;;5073038;28;20028;-78
2022/09/28 07:12:53;;;;;;;35.10;20.15;;;8.70;99.90;;;;;;5074984;28;20035;-78
2022/09/28 07:15:20;;;;;;;36.63;19.85;;;8.70;99.90;;;;;;5068069;28;20036;-76
2022/09/28 07:17:46;;;;;;;32.35;18.13;;;8.80;99.90;;;;;;5065728;28;20039;-77
2022/09/28 07:20:12;;;;;;;34.22;19.73;;;8.90;99.90;;;;;;5069702;28;20513;-77
2022/09/28 07:22:38;;;;;;;35.03;19.15;;;8.90;99.90;;;;;;5073169;28;20102;-78
2022/09/28 07:25:06;;;;;;;29.85;18.58;;;8.90;99.90;;;;;;5072457;28;20056;-78
2022/09/28 07:27:32;;;;;;;35.20;19.92;;;8.80;99.90;;;;;;5073853;28;20107;-77
2022/09/28 07:29:58;;;;;;;39.08;21.08;;;8.90;99.90;;;;;;5070323;28;20040;-78
2022/09/28 07:32:26;;;;;;;33.45;19.88;;;8.90;99.90;;;;;;5070159;28;20039;-77
2022/09/28 07:34:52;;;;;;;34.97;20.27;;;8.90;99.90;;;;;;5064883;28;20067;-77
2022/09/28 07:37:18;;;;;;;33.83;19.50;;;8.90;99.90;;;;;;5068654;28;20032;-77
2022/09/28 07:42:29;;;;;;;31.95;19.08;;;9.00;99.90;;;;;;5071984;28;20514;-77
2022/09/28 07:44:56;;;;;;;35.72;20.77;;;9.00;99.90;;;;;;5066467;28;20021;-77
2022/09/28 07:47:28;;;;;;;38.65;21.65;;;9.10;99.90;;;;;;5071028;28;20032;-77
2022/09/28 07:49:57;;;;;;;33.95;18.55;;;9.10;99.90;;;;;;5065068;28;20016;-77
2022/09/28 07:52:25;;;;;;;29.98;17.40;;;9.10;99.90;;;;;;5072623;28;20063;-78
2022/09/28 07:54:57;;;;;;;31.75;18.45;;;9.20;99.90;;;;;;5070642;28;20020;-77
2022/09/28 07:57:23;;;;;;;34.83;19.27;;;9.20;99.90;;;;;;5068504;28;20039;-77
2022/09/28 07:59:49;;;;;;;32.92;17.75;;;9.30;99.90;;;;;;5070851;28;20636;-78
2022/09/28 08:02:19;;;;;;;30.35;18.35;;;9.30;99.90;;;;;;5068929;28;20054;-76
2022/09/28 08:04:49;;;;;;;34.38;20.17;;;9.40;99.90;;;;;;5063973;28;20072;-76
2022/09/28 08:07:16;;;;;;;33.70;18.27;;;9.40;99.90;;;;;;5070446;28;20525;-77
2022/09/28 08:09:43;;;;;;;33.45;18.23;;;9.50;99.90;;;;;;5070527;28;20382;-76
2022/09/28 08:12:09;;;;;;;31.73;18.63;;;9.50;99.90;;;;;;5069053;28;20027;-77
2022/09/28 08:14:36;;;;;;;38.72;20.80;;;9.50;99.90;;;;;;5067410;28;20023;-76
2022/09/28 08:17:03;;;;;;;40.50;20.40;;;9.50;99.90;;;;;;5066417;28;20031;-76
2022/09/28 08:21:43;;;;;;;34.72;20.35;;;9.30;99.90;;;;;;5065875;28;20200;-76
2022/09/28 08:22:18;;;;;;;30.80;18.10;;;9.40;99.90;;;;;;5058128;28;20016;-77
2022/09/28 08:24:48;;;;;;;35.25;18.60;;;9.40;99.90;;;;;;5066090;28;20054;-75
2022/09/28 08:27:15;;;;;;;35.53;18.08;;;9.40;99.90;;;;;;5066076;28;20012;-76
2022/09/28 08:29:42;;;;;;;31.70;18.90;;;9.50;99.90;;;;;;5064361;28;20397;-77
2022/09/28 08:32:09;;;;;;;32.92;18.88;;;9.50;99.90;;;;;;5065685;28;20044;-76
2022/09/28 08:34:39;;;;;;;32.42;18.55;;;9.50;99.90;;;;;;5065510;28;20024;-76
2022/09/28 08:37:07;;;;;;;33.97;19.50;;;9.40;99.90;;;;;;5067273;28;20035;-76
2022/09/28 08:39:34;;;;;;;34.42;19.30;;;9.40;99.90;;;;;;5064831;28;20112;-76
2022/09/28 08:42:24;;;;;;;33.35;18.40;;;9.40;99.90;;;;;;5066183;28;20488;-77
2022/09/28 08:44:56;;;;;;;35.42;17.42;;;9.50;99.90;;;;;;5066917;28;20093;-76
2022/09/28 08:50:23;;;;;;;29.10;16.65;;;9.60;99.90;;;;;;5067144;28;20031;-79
2022/09/28 08:52:56;;;;;;;30.13;18.38;;;9.70;99.90;;;;;;5069012;28;20103;-77
2022/09/28 08:55:29;;;;;;;32.55;18.55;;;9.70;99.90;;;;;;5068022;28;20123;-76
2022/09/28 08:58:19;;;;;;;32.90;19.08;;;9.70;99.90;;;;;;5067268;28;20496;-77
2022/09/28 09:00:47;;;;;;;35.97;19.83;;;9.80;99.90;;;;;;5057642;28;20044;-77
2022/09/28 09:03:28;;;;;;;34.08;17.73;;;9.90;99.90;;;;;;5068216;28;20086;-77
2022/09/28 09:06:19;;;;;;;31.10;17.75;;;9.90;99.90;;;;;;5067579;28;20032;-77
2022/09/28 09:08:56;;;;;;;36.88;19.63;;;9.90;99.90;;;;;;5090224;28;20024;-75
2022/09/28 09:11:59;;;;;;;37.10;19.65;;;10.00;99.90;;;;;;5085361;28;20032;-76
2022/09/28 09:14:35;;;;;;;32.50;18.00;;;10.00;99.90;;;;;;5074744;28;20052;-76
2022/09/28 09:17:27;;;;;;;35.38;18.48;;;10.10;99.90;;;;;;5065496;28;20159;-76
2022/09/28 09:20:00;;;;;;;35.53;18.27;;;10.00;99.90;;;;;;5069608;28;20054;-77
2022/09/28 09:22:32;;;;;;;32.60;16.70;;;10.00;99.90;;;;;;5069096;28;20033;-75
2022/09/28 09:25:19;;;;;;;35.08;18.15;;;10.00;99.90;;;;;;5064382;28;20116;-75
2022/09/28 09:27:56;;;;;;;33.42;17.58;;;9.90;99.90;;;;;;5068191;28;20107;-76
2022/09/28 09:30:23;;;;;;;36.55;17.85;;;10.00;99.90;;;;;;5065200;28;20029;-76
2022/09/28 09:32:52;;;;;;;34.10;17.55;;;10.00;99.90;;;;;;5065615;28;20028;-76
2022/09/28 09:35:29;;;;;;;31.33;17.95;;;10.00;99.90;;;;;;5065701;28;20111;-76
2022/09/28 09:38:36;;;;;;;36.97;19.38;;;10.10;99.90;;;;;;5067503;28;20458;-75
2022/09/28 09:41:30;;;;;;;35.42;18.95;;;10.20;99.90;;;;;;5018338;28;20113;-76
2022/09/28 09:44:22;;;;;;;32.92;18.65;;;10.20;99.90;;;;;;5062311;28;20037;-78
2022/09/28 09:47:29;;;;;;;34.45;20.13;;;10.20;99.90;;;;;;5066566;28;20025;-76
2022/09/28 09:50:16;;;;;;;35.08;20.55;;;10.40;99.90;;;;;;5001871;28;20510;-75
2022/09/28 09:52:53;;;;;;;34.78;20.58;;;10.60;99.90;;;;;;5061877;28;20036;-75
2022/09/28 09:55:33;;;;;;;34.15;20.25;;;10.80;99.90;;;;;;5061913;28;20040;-75
2022/09/28 09:58:12;;;;;;;32.22;18.17;;;10.80;99.90;;;;;;5066236;28;20039;-75
2022/09/28 10:00:42;;;;;;;31.10;18.05;;;10.70;99.90;;;;;;5065054;28;20449;-77
2022/09/28 10:03:25;;;;;;;27.23;16.40;;;10.60;99.90;;;;;;5068020;28;20036;-76
2022/09/28 10:06:18;;;;;;;32.80;18.95;;;10.80;99.90;;;;;;5068206;28;20392;-76
2022/09/28 10:08:49;;;;;;;30.80;19.08;;;10.90;99.90;;;;;;5064685;28;20044;-77
2022/09/28 10:11:20;;;;;;;30.60;18.25;;;10.90;99.90;;;;;;5064154;28;20028;-76
2022/09/28 10:13:48;;;;;;;33.60;18.88;;;11.00;99.90;;;;;;5067076;28;20083;-77
2022/09/28 10:16:16;;;;;;;28.00;16.08;;;11.00;99.90;;;;;;5071803;28;20114;-77
2022/09/28 10:18:42;;;;;;;21.55;13.00;;;11.00;99.90;;;;;;5067303;28;20035;-77
2022/09/28 10:21:13;;;;;;;22.13;13.63;;;10.90;99.90;;;;;;5062921;28;20021;-77
2022/09/28 10:23:40;;;;;;;23.25;13.23;;;10.90;99.90;;;;;;5066263;28;20032;-76
2022/09/28 10:26:21;;;;;;;25.90;14.27;;;10.90;99.90;;;;;;5066926;28;20031;-77
2022/09/28 10:28:54;;;;;;;22.13;12.35;;;10.80;99.90;;;;;;5067756;28;20032;-77
2022/09/28 10:31:42;;;;;;;18.90;11.23;;;10.80;99.90;;;;;;5069079;28;20510;-76
2022/09/28 10:34:14;;;;;;;19.98;10.20;;;10.90;99.90;;;;;;5065565;28;20064;-76
2022/09/28 10:36:58;;;;;;;16.23;9.63;;;10.90;99.90;;;;;;5055787;28;20033;-76
2022/09/28 10:39:24;;;;;;;18.15;11.85;;;11.10;99.90;;;;;;5071759;28;20025;-76
2022/09/28 10:41:50;;;;;;;22.77;12.27;;;11.20;99.90;;;;;;5065415;28;20071;-76
2022/09/28 10:44:19;;;;;;;13.52;9.13;;;11.30;99.90;;;;;;5070424;28;20027;-77
2022/09/28 10:46:55;;;;;;;12.00;8.23;;;11.20;99.90;;;;;;5063960;28;20017;-77
2022/09/28 10:49:22;;;;;;;15.40;8.80;;;11.30;99.90;;;;;;5071824;28;20124;-76
2022/09/28 10:51:55;;;;;;;13.43;8.02;;;11.70;99.90;;;;;;5063082;28;20055;-75
2022/09/28 10:54:24;;;;;;;12.10;6.78;;;12.70;99.90;;;;;;5050872;28;20036;-76
2022/09/28 10:56:52;;;;;;;9.00;5.50;;;13.60;99.90;;;;;;5058704;28;20029;-78
2022/09/28 10:59:30;;;;;;;7.40;4.75;;;14.60;99.90;;;;;;5065510;28;20153;-75
2022/09/28 11:01:58;;;;;;;6.85;4.03;;;15.40;99.90;;;;;;5054533;28;20037;-75
2022/09/28 11:04:29;;;;;;;5.65;4.20;;;15.90;99.90;;;;;;5058680;28;24348;-76
2022/09/28 11:06:59;;;;;;;4.35;3.17;;;16.90;99.90;;;;;;5048468;28;20070;-76
2022/09/28 11:09:29;;;;;;;3.13;2.70;;;17.80;99.90;;;;;;5054901;28;20094;-76
2022/09/28 11:11:56;;;;;;;4.28;2.72;;;18.30;98.90;;;;;;5063721;28;20024;-76
2022/09/28 11:14:32;;;;;;;4.13;3.17;;;17.70;98.60;;;;;;5058673;28;20056;-76
2022/09/28 11:17:37;;;;;;;3.97;3.05;;;16.80;99.90;;;;;;5055000;28;20041;-76
2022/09/28 11:20:24;;;;;;;5.95;3.35;;;16.20;99.90;;;;;;5060973;28;20854;-76
2022/09/28 11:22:50;;;;;;;4.55;3.63;;;15.60;99.90;;;;;;5058442;28;20099;-77
2022/09/28 11:25:15;;;;;;;7.82;3.88;;;14.70;99.90;;;;;;5065454;28;20108;-76
2022/09/28 11:27:54;;;;;;;5.90;3.67;;;14.20;99.90;;;;;;5064211;28;20116;-77
2022/09/28 11:30:29;;;;;;;5.32;3.70;;;13.90;99.90;;;;;;5065732;28;20279;-75
2022/09/28 11:33:02;;;;;;;7.35;4.18;;;13.40;99.90;;;;;;5065219;28;20035;-77
2022/09/28 11:35:44;;;;;;;6.60;4.47;;;13.20;99.90;;;;;;5068035;28;20071;-76
2022/09/28 11:38:30;;;;;;;7.75;4.85;;;13.00;99.90;;;;;;5089583;28;20073;-73
2022/09/28 11:41:04;;;;;;;6.80;4.50;;;12.50;99.90;;;;;;5074384;28;20150;-76
2022/09/28 11:44:07;;;;;;;9.52;4.15;;;12.30;99.90;;;;;;5066766;28;20765;-76
2022/09/28 11:46:39;;;;;;;9.60;4.00;;;12.20;99.90;;;;;;5063685;28;20115;-75
2022/09/28 11:49:14;;;;;;;8.50;4.47;;;12.00;99.90;;;;;;5065802;28;20020;-76
2022/09/28 11:51:42;;;;;;;7.13;4.18;;;11.90;99.90;;;;;;5065591;28;20032;-74
2022/09/28 11:54:37;;;;;;;7.15;3.88;;;11.80;99.90;;;;;;5068045;28;20031;-77
2022/09/28 11:57:05;;;;;;;6.68;3.90;;;11.80;99.90;;;;;;5066493;28;20730;-75
2022/09/28 11:59:47;;;;;;;7.60;4.35;;;11.80;99.90;;;;;;5070206;28;20086;-76
2022/09/28 12:02:28;;;;;;;5.88;3.50;;;12.00;99.90;;;;;;5068968;28;20025;-76
2022/09/28 12:05:15;;;;;;;6.32;3.38;;;12.60;99.90;;;;;;5063524;28;20401;-76
2022/09/28 12:08:07;;;;;;;4.50;2.92;;;12.90;99.90;;;;;;5066939;28;20048;-76
2022/09/28 12:11:01;;;;;;;5.40;2.60;;;12.80;99.90;;;;;;5061151;28;20416;-76
2022/09/28 12:13:34;;;;;;;6.38;3.22;;;12.60;99.90;;;;;;5045523;28;20070;-75
2022/09/28 12:16:13;;;;;;;5.60;3.40;;;12.30;99.90;;;;;;5065903;28;20024;-78
2022/09/28 12:18:55;;;;;;;4.80;3.40;;;12.20;99.90;;;;;;5068365;28;20025;-76
2022/09/28 12:21:32;;;;;;;4.60;3.45;;;12.10;99.90;;;;;;5056812;28;20276;-77
2022/09/28 12:24:17;;;;;;;5.10;3.40;;;12.20;99.90;;;;;;5062757;28;20070;-77
2022/09/28 12:27:04;;;;;;;5.53;3.40;;;12.10;99.90;;;;;;5061979;28;20044;-76
2022/09/28 12:29:48;;;;;;;7.97;3.75;;;12.10;99.90;;;;;;5065555;28;20103;-76
2022/09/28 12:32:42;;;;;;;5.32;4.00;;;12.10;99.90;;;;;;5059638;28;20033;-77
2022/09/28 12:35:49;;;;;;;6.53;3.65;;;12.00;99.90;;;;;;5065940;28;20032;-76
2022/09/28 12:38:33;;;;;;;5.22;3.35;;;11.90;99.90;;;;;;5063343;28;21424;-76
2022/09/28 12:41:19;;;;;;;12.02;4.00;;;12.00;99.90;;;;;;5059125;28;20033;-76
2022/09/28 12:44:04;;;;;;;6.47;3.40;;;12.30;99.90;;;;;;5062564;28;20480;-76
2022/09/28 12:46:48;;;;;;;9.18;2.65;;;12.30;99.90;;;;;;5066477;28;20024;-77
2022/09/28 12:49:34;;;;;;;5.25;2.83;;;12.30;99.90;;;;;;5062208;28;20547;-77
2022/09/28 12:52:26;;;;;;;4.22;2.97;;;12.20;99.90;;;;;;5068108;28;20021;-77
2022/09/28 12:55:07;;;;;;;3.72;2.60;;;12.00;99.90;;;;;;5066192;28;20036;-77
2022/09/28 12:57:50;;;;;;;5.40;2.33;;;11.90;99.90;;;;;;5069386;28;20111;-77
2022/09/28 13:00:23;;;;;;;4.70;2.83;;;11.80;99.90;;;;;;5068522;28;20492;-77
2022/09/28 13:03:14;;;;;;;3.47;1.90;;;11.80;99.90;;;;;;5064376;28;20467;-77
2022/09/28 13:06:12;;;;;;;;;;;11.80;99.90;;;;;;5070510;28;20021;-77
2022/09/28 13:09:02;;;;;;;6.38;2.80;;;11.80;99.90;;;;;;5051419;28;19912;-77
2022/09/28 13:11:53;;;;;;;1046.03;658.00;;;11.90;99.90;;;;;;5064229;28;20032;-77
2022/09/28 13:14:43;;;;;;;847.47;522.03;;;11.80;99.90;;;;;;5067023;28;20082;-77
2022/09/28 13:17:45;;;;;;;486.48;332.50;;;11.80;99.90;;;;;;5063268;28;20063;-76
2022/09/28 13:20:38;;;;;;;111.10;74.57;;;11.80;99.90;;;;;;5066045;28;20178;-77
2022/09/28 13:23:15;;;;;;;9.77;5.15;;;11.80;99.90;;;;;;5064824;28;20021;-78
2022/09/28 13:26:08;;;;;;;5.60;3.75;;;11.70;99.90;;;;;;5061999;28;20025;-75
2022/09/28 13:28:36;;;;;;;4.25;2.53;;;11.70;99.90;;;;;;5063368;28;20480;-77